createdAt,value
2023-04-29T00:02:16.371Z,8.83
2023-04-29T00:04:43.122Z,8.83
2023-04-29T00:07:09.669Z,8.84
2023-04-29T00:09:37.549Z,8.82
2023-04-29T00:12:04.081Z,8.83
2023-04-29T00:14:30.461Z,8.83
2023-04-29T00:16:57.148Z,8.83
2023-04-29T00:19:23.759Z,8.84
2023-04-29T00:21:50.130Z,8.83
2023-04-29T00:24:16.490Z,8.83
2023-04-29T00:26:42.946Z,8.82
2023-04-29T00:29:09.386Z,8.83
2023-04-29T00:31:37.207Z,8.81
2023-04-29T00:34:03.909Z,8.82
2023-04-29T00:36:31.875Z,8.81
2023-04-29T00:38:58.714Z,8.82
2023-04-29T00:41:26.017Z,8.82
2023-04-29T00:43:52.979Z,8.81
2023-04-29T00:46:19.750Z,8.81
2023-04-29T00:48:46.232Z,8.81
2023-04-29T00:51:13.890Z,8.82
2023-04-29T00:53:40.844Z,8.83
2023-04-29T00:56:08.596Z,8.81
2023-04-29T00:58:36.384Z,8.79
2023-04-29T01:01:06.329Z,8.77
2023-04-29T01:03:33.028Z,8.72
2023-04-29T01:06:33.057Z,8.75
2023-04-29T01:09:17.163Z,8.74
2023-04-29T01:12:06.783Z,8.75
2023-04-29T01:14:34.640Z,8.76
2023-04-29T01:17:06.674Z,8.74
2023-04-29T01:19:46.694Z,8.73
2023-04-29T01:22:17.656Z,8.73
2023-04-29T01:24:44.863Z,8.72
2023-04-29T01:27:31.737Z,8.66
2023-04-29T01:30:28.932Z,8.63
2023-04-29T01:33:40.167Z,8.65
2023-04-29T01:36:47.514Z,8.63
2023-04-29T01:39:31.449Z,8.64
2023-04-29T01:42:22.445Z,8.64
2023-04-29T01:44:51.516Z,8.63
2023-04-29T01:47:21.538Z,8.62
2023-04-29T01:49:51.828Z,8.61
2023-04-29T01:52:18.550Z,8.61
2023-04-29T01:54:52.891Z,8.57
2023-04-29T01:57:19.757Z,8.61
2023-04-29T01:59:53.870Z,8.62
2023-04-29T02:02:39.212Z,8.64
2023-04-29T02:05:16.052Z,8.65
2023-04-29T02:07:49.784Z,8.67
2023-04-29T02:10:16.252Z,8.65
2023-04-29T02:12:44.787Z,8.67
2023-04-29T02:15:11.715Z,8.67
2023-04-29T02:17:38.135Z,8.68
2023-04-29T02:20:04.816Z,8.67
2023-04-29T02:22:31.277Z,8.68
2023-04-29T02:24:58.295Z,8.70
2023-04-29T02:27:24.732Z,8.73
2023-04-29T02:29:51.690Z,8.73
2023-04-29T02:32:20.505Z,8.74
2023-04-29T02:34:47.089Z,8.74
2023-04-29T02:37:13.659Z,8.72
2023-04-29T02:39:40.339Z,8.71
2023-04-29T02:42:06.717Z,8.73
2023-04-29T02:44:36.070Z,8.76
2023-04-29T02:47:02.606Z,8.77
2023-04-29T02:49:29.784Z,8.78
2023-04-29T02:51:56.381Z,8.79
2023-04-29T02:54:23.571Z,8.79
2023-04-29T02:56:50.113Z,8.78
2023-04-29T02:59:16.657Z,8.76
2023-04-29T03:01:43.309Z,8.70
2023-04-29T03:04:11.124Z,8.72
2023-04-29T03:06:38.002Z,8.69
2023-04-29T03:09:04.626Z,8.68
2023-04-29T03:11:31.070Z,8.66
2023-04-29T03:13:57.557Z,8.63
2023-04-29T03:16:25.094Z,8.61
2023-04-29T03:18:51.926Z,8.60
2023-04-29T03:21:18.638Z,8.57
2023-04-29T03:23:45.087Z,8.58
2023-04-29T03:26:18.188Z,8.58
2023-04-29T03:28:44.740Z,8.57
2023-04-29T03:31:12.212Z,8.57
2023-04-29T03:33:38.852Z,8.57
2023-04-29T03:36:05.652Z,8.58
2023-04-29T03:38:38.771Z,8.58
2023-04-29T03:41:05.406Z,8.59
2023-04-29T03:43:31.924Z,8.57
2023-04-29T03:45:58.682Z,8.55
2023-04-29T03:48:25.465Z,8.56
2023-04-29T03:50:52.563Z,8.56
2023-04-29T03:53:19.283Z,8.56
2023-04-29T03:55:46.521Z,8.56
2023-04-29T03:58:13.274Z,8.57
2023-04-29T04:00:40.018Z,8.56
2023-04-29T04:03:12.301Z,8.54
2023-04-29T04:05:39.023Z,8.57
2023-04-29T04:08:12.195Z,8.56
2023-04-29T04:10:38.588Z,8.57
2023-04-29T04:13:14.675Z,8.56
2023-04-29T04:15:42.497Z,8.54
2023-04-29T04:18:09.011Z,8.50
2023-04-29T04:20:38.717Z,8.48
2023-04-29T04:23:05.441Z,8.50
2023-04-29T04:25:32.120Z,8.50
2023-04-29T04:28:17.386Z,8.50
2023-04-29T04:31:03.898Z,8.51
2023-04-29T04:33:30.384Z,8.49
2023-04-29T04:35:56.818Z,8.50
2023-04-29T04:38:25.449Z,8.49
2023-04-29T04:40:53.413Z,8.51
2023-04-29T04:43:34.749Z,8.51
2023-04-29T04:46:10.722Z,8.51
2023-04-29T04:48:40.377Z,8.55
2023-04-29T04:51:13.643Z,8.56
2023-04-29T04:53:40.878Z,8.58
2023-04-29T04:56:12.055Z,8.61
2023-04-29T04:58:38.482Z,8.62
2023-04-29T05:01:05.004Z,8.63
2023-04-29T05:03:31.929Z,8.65
2023-04-29T05:06:01.158Z,8.69
2023-04-29T05:08:28.549Z,8.72
2023-04-29T05:10:58.435Z,8.73
2023-04-29T05:13:25.566Z,8.81
2023-04-29T05:15:51.990Z,8.85
2023-04-29T05:18:22.785Z,8.87
2023-04-29T05:20:51.009Z,8.83
2023-04-29T05:23:17.453Z,8.87
2023-04-29T05:25:45.680Z,8.86
2023-04-29T05:28:12.220Z,8.91
2023-04-29T05:30:41.607Z,8.91
2023-04-29T05:33:08.436Z,8.97
2023-04-29T05:35:34.903Z,8.97
2023-04-29T05:38:01.505Z,9.00
2023-04-29T05:40:35.711Z,9.11
2023-04-29T05:43:20.610Z,9.16
2023-04-29T05:45:47.632Z,9.20
2023-04-29T05:48:14.084Z,9.30
2023-04-29T05:50:40.609Z,9.28
2023-04-29T05:53:07.339Z,9.31
2023-04-29T05:55:35.138Z,9.33
2023-04-29T05:58:01.661Z,9.49
2023-04-29T06:00:28.216Z,9.64
2023-04-29T06:03:01.300Z,9.65
2023-04-29T06:05:28.148Z,9.71
2023-04-29T06:08:19.682Z,9.67
2023-04-29T06:10:52.656Z,9.78
2023-04-29T06:13:19.525Z,9.95
2023-04-29T06:15:46.317Z,10.06
2023-04-29T06:18:14.324Z,10.04
2023-04-29T06:20:42.252Z,10.10
2023-04-29T06:23:08.761Z,10.36
2023-04-29T06:25:35.460Z,10.50
2023-04-29T06:28:04.673Z,10.43
2023-04-29T06:30:31.642Z,10.46
2023-04-29T06:32:58.121Z,10.55
2023-04-29T06:35:24.692Z,10.62
2023-04-29T06:37:52.622Z,10.69
2023-04-29T06:40:37.069Z,10.88
2023-04-29T06:43:24.125Z,10.95
2023-04-29T06:46:10.001Z,10.89
2023-04-29T06:48:43.240Z,10.79
2023-04-29T06:51:09.676Z,10.71
2023-04-29T06:53:37.772Z,10.75
2023-04-29T06:56:05.437Z,10.92
2023-04-29T06:58:31.828Z,11.18
2023-04-29T07:00:58.276Z,11.13
2023-04-29T07:03:24.808Z,11.08
2023-04-29T07:05:51.304Z,11.10
2023-04-29T07:08:17.833Z,11.05
2023-04-29T07:10:54.487Z,11.39
2023-04-29T07:13:23.554Z,11.64
2023-04-29T07:15:51.267Z,11.49
2023-04-29T07:18:18.045Z,11.57
2023-04-29T07:20:45.681Z,12.25
2023-04-29T07:23:12.126Z,12.76
2023-04-29T07:25:38.589Z,13.05
2023-04-29T07:28:05.588Z,12.96
2023-04-29T07:30:31.988Z,12.86
2023-04-29T07:32:58.471Z,12.89
2023-04-29T07:35:24.991Z,12.81
2023-04-29T07:37:51.554Z,13.17
2023-04-29T07:40:18.441Z,14.07
2023-04-29T07:42:45.206Z,14.54
2023-04-29T07:45:13.762Z,14.90
2023-04-29T07:47:40.352Z,14.79
2023-04-29T07:50:07.285Z,14.77
2023-04-29T07:52:34.895Z,13.89
2023-04-29T07:55:01.906Z,12.83
2023-04-29T07:57:28.395Z,12.82
2023-04-29T07:59:56.198Z,13.19
2023-04-29T08:02:23.195Z,13.34
2023-04-29T08:04:51.617Z,12.60
2023-04-29T08:07:18.611Z,12.26
2023-04-29T08:09:45.062Z,12.22
2023-04-29T08:12:11.548Z,12.93
2023-04-29T08:14:40.278Z,13.45
2023-04-29T08:17:07.369Z,13.56
2023-04-29T08:19:33.725Z,13.22
2023-04-29T08:22:01.062Z,12.80
2023-04-29T08:24:29.048Z,13.09
2023-04-29T08:26:55.409Z,12.80
2023-04-29T08:29:21.902Z,12.54
2023-04-29T08:31:48.422Z,13.10
2023-04-29T08:34:14.972Z,13.35
2023-04-29T08:36:41.373Z,13.39
2023-04-29T08:39:07.826Z,12.94
2023-04-29T08:41:34.324Z,12.82
2023-04-29T08:44:00.963Z,13.28
2023-04-29T08:46:27.761Z,13.04
2023-04-29T08:48:56.467Z,12.64
2023-04-29T08:51:22.916Z,13.42
2023-04-29T08:53:49.395Z,13.89
2023-04-29T08:56:23.115Z,13.98
2023-04-29T08:58:54.623Z,14.26
2023-04-29T09:01:22.999Z,14.28
2023-04-29T09:03:57.150Z,14.21
2023-04-29T09:06:23.783Z,14.32
2023-04-29T09:08:50.253Z,14.32
2023-04-29T09:11:16.966Z,14.35
2023-04-29T09:13:43.382Z,13.86
2023-04-29T09:16:13.483Z,13.89
2023-04-29T09:18:50.627Z,14.09
2023-04-29T09:21:25.443Z,14.55
2023-04-29T09:23:54.380Z,14.55
2023-04-29T09:26:22.115Z,13.72
2023-04-29T09:29:16.084Z,13.57
2023-04-29T09:31:42.647Z,13.51
2023-04-29T09:34:09.706Z,13.77
2023-04-29T09:36:47.941Z,13.55
2023-04-29T09:39:17.501Z,13.81
2023-04-29T09:41:53.049Z,14.15
2023-04-29T09:44:24.790Z,14.37
2023-04-29T09:47:03.097Z,14.45
2023-04-29T09:49:45.311Z,14.13
2023-04-29T09:52:14.142Z,14.12
2023-04-29T09:54:42.263Z,14.09
2023-04-29T09:57:10.617Z,14.07
2023-04-29T09:59:39.660Z,13.81
2023-04-29T10:02:20.753Z,13.65
2023-04-29T10:04:58.209Z,13.72
2023-04-29T10:07:26.264Z,13.87
2023-04-29T10:09:53.263Z,14.13
2023-04-29T10:12:20.813Z,14.10
2023-04-29T10:15:03.760Z,13.69
2023-04-29T10:17:43.340Z,13.86
2023-04-29T10:20:21.458Z,14.36
2023-04-29T10:22:49.608Z,14.66
2023-04-29T10:25:19.521Z,14.21
2023-04-29T10:27:47.501Z,14.03
2023-04-29T10:30:17.954Z,15.09
2023-04-29T10:32:51.007Z,14.89
2023-04-29T10:35:20.499Z,14.47
2023-04-29T10:37:48.790Z,14.14
2023-04-29T10:40:29.872Z,13.79
2023-04-29T10:42:56.994Z,14.24
2023-04-29T10:45:24.693Z,15.28
2023-04-29T10:48:05.480Z,14.91
2023-04-29T10:50:33.715Z,14.66
2023-04-29T10:53:06.262Z,14.95
2023-04-29T10:55:36.211Z,15.11
2023-04-29T10:58:03.074Z,15.27
2023-04-29T11:00:31.521Z,15.63
2023-04-29T11:03:00.350Z,16.13
2023-04-29T11:05:34.346Z,16.49
2023-04-29T11:08:12.863Z,16.10
2023-04-29T11:10:43.582Z,15.63
2023-04-29T11:13:26.949Z,16.09
2023-04-29T11:16:12.337Z,16.13
2023-04-29T11:19:17.511Z,16.60
2023-04-29T11:21:46.934Z,15.95
2023-04-29T11:24:15.998Z,15.69
2023-04-29T11:26:43.581Z,15.92
2023-04-29T11:29:12.980Z,16.17
2023-04-29T11:31:39.726Z,16.08
2023-04-29T11:34:07.569Z,15.88
2023-04-29T11:36:34.893Z,16.59
2023-04-29T11:39:03.649Z,16.90
2023-04-29T11:41:31.496Z,17.04
2023-04-29T11:43:59.582Z,15.93
2023-04-29T11:46:28.936Z,16.72
2023-04-29T11:48:58.043Z,17.01
2023-04-29T11:51:24.563Z,17.22
2023-04-29T11:53:52.548Z,17.58
2023-04-29T11:56:24.196Z,16.99
2023-04-29T11:58:54.318Z,16.73
2023-04-29T12:01:21.552Z,15.98
2023-04-29T12:03:49.700Z,16.53
2023-04-29T12:06:16.319Z,16.63
2023-04-29T12:08:42.684Z,16.31
2023-04-29T12:11:09.080Z,16.53
2023-04-29T12:13:36.556Z,15.93
2023-04-29T12:16:04.256Z,16.03
2023-04-29T12:18:31.042Z,16.53
2023-04-29T12:20:58.232Z,16.35
2023-04-29T12:23:27.241Z,16.95
2023-04-29T12:25:59.295Z,16.88
2023-04-29T12:28:27.182Z,16.89
2023-04-29T12:30:55.058Z,16.11
2023-04-29T12:33:30.669Z,15.96
2023-04-29T12:35:58.748Z,16.26
2023-04-29T12:38:36.402Z,16.18
2023-04-29T12:41:02.952Z,16.34
2023-04-29T12:43:30.856Z,16.99
2023-04-29T12:46:04.961Z,16.33
2023-04-29T12:48:39.117Z,16.01
2023-04-29T12:51:05.812Z,16.37
2023-04-29T12:53:32.565Z,17.03
2023-04-29T12:55:59.571Z,17.58
2023-04-29T12:58:29.916Z,17.22
2023-04-29T13:00:57.421Z,16.35
2023-04-29T13:03:24.880Z,16.26
2023-04-29T13:05:53.621Z,16.61
2023-04-29T13:08:21.002Z,17.51
2023-04-29T13:10:47.438Z,17.37
2023-04-29T13:13:13.825Z,16.74
2023-04-29T13:15:40.282Z,16.60
2023-04-29T13:18:06.843Z,16.34
2023-04-29T13:20:40.061Z,16.76
2023-04-29T13:23:07.765Z,17.17
2023-04-29T13:25:34.181Z,17.26
2023-04-29T13:28:00.605Z,17.60
2023-04-29T13:30:26.978Z,16.90
2023-04-29T13:32:56.747Z,16.78
2023-04-29T13:35:26.218Z,16.65
2023-04-29T13:37:52.711Z,17.27
2023-04-29T13:40:21.194Z,17.89
2023-04-29T13:42:50.486Z,18.33
2023-04-29T13:45:23.262Z,17.91
2023-04-29T13:50:57.331Z,16.10
2023-04-29T14:03:03.266Z,16.68
2023-04-29T14:05:29.811Z,17.25
2023-04-29T14:07:56.337Z,17.50
2023-04-29T14:10:22.986Z,17.34
2023-04-29T14:12:49.411Z,16.95
2023-04-29T14:15:16.275Z,16.69
2023-04-29T14:17:42.753Z,16.38
2023-04-29T14:20:09.522Z,16.26
2023-04-29T14:22:35.899Z,16.59
2023-04-29T14:25:02.275Z,17.02
2023-04-29T14:27:28.653Z,17.12
2023-04-29T14:29:55.031Z,17.06
2023-04-29T14:32:21.424Z,17.06
2023-04-29T14:34:47.817Z,16.84
2023-04-29T14:37:14.240Z,16.93
2023-04-29T14:39:40.721Z,17.31
2023-04-29T14:42:07.596Z,17.48
2023-04-29T14:44:34.017Z,16.96
2023-04-29T14:47:00.621Z,16.68
2023-04-29T14:49:28.181Z,16.73
2023-04-29T14:51:55.918Z,17.00
2023-04-29T14:54:22.400Z,16.41
2023-04-29T14:56:48.777Z,16.37
2023-04-29T14:59:15.199Z,16.60
2023-04-29T15:01:41.736Z,16.58
2023-04-29T15:04:08.569Z,16.81
2023-04-29T15:06:35.147Z,16.72
2023-04-29T15:09:01.739Z,16.75
2023-04-29T15:11:28.137Z,16.94
2023-04-29T15:13:54.583Z,16.38
2023-04-29T15:16:21.232Z,16.36
2023-04-29T15:18:47.929Z,16.62
2023-04-29T15:21:14.309Z,16.82
2023-04-29T15:23:40.779Z,16.85
2023-04-29T15:26:07.696Z,16.99
2023-04-29T15:28:34.129Z,16.80
2023-04-29T15:31:03.648Z,16.70
2023-04-29T15:33:30.099Z,16.87
2023-04-29T15:35:56.952Z,16.23
2023-04-29T15:38:23.451Z,16.31
2023-04-29T15:40:49.911Z,16.03
2023-04-29T15:43:16.579Z,16.13
2023-04-29T15:45:43.053Z,16.35
2023-04-29T15:48:09.576Z,16.38
2023-04-29T15:50:36.015Z,15.81
2023-04-29T15:53:02.423Z,16.10
2023-04-29T15:55:28.952Z,16.16
2023-04-29T15:57:55.835Z,15.63
2023-04-29T16:00:22.275Z,15.52
2023-04-29T16:02:48.783Z,15.91
2023-04-29T16:05:15.386Z,16.08
2023-04-29T16:07:41.847Z,16.07
2023-04-29T16:10:09.733Z,16.19
2023-04-29T16:12:36.402Z,15.90
2023-04-29T16:15:03.301Z,15.53
2023-04-29T16:17:32.243Z,15.33
2023-04-29T16:19:58.858Z,15.39
2023-04-29T16:22:25.411Z,15.11
2023-04-29T16:24:52.085Z,15.04
2023-04-29T16:27:18.763Z,15.08
2023-04-29T16:29:45.437Z,15.01
2023-04-29T16:32:11.815Z,14.98
2023-04-29T16:34:38.250Z,14.59
2023-04-29T16:37:05.080Z,14.55
2023-04-29T16:39:31.636Z,14.50
2023-04-29T16:41:59.383Z,14.49
2023-04-29T16:44:25.877Z,14.27
2023-04-29T16:46:52.783Z,14.29
2023-04-29T16:49:24.229Z,14.32
2023-04-29T16:51:50.750Z,14.35
2023-04-29T16:54:17.287Z,14.30
2023-04-29T16:56:43.816Z,14.25
2023-04-29T16:59:12.306Z,14.07
2023-04-29T17:01:39.750Z,13.88
2023-04-29T17:04:08.750Z,13.91
2023-04-29T17:06:37.208Z,13.91
2023-04-29T17:09:03.964Z,13.75
2023-04-29T17:11:30.396Z,13.56
2023-04-29T17:13:56.790Z,13.54
2023-04-29T17:16:23.290Z,13.49
2023-04-29T17:18:49.713Z,13.53
2023-04-29T17:21:16.124Z,13.39
2023-04-29T17:23:42.580Z,13.26
2023-04-29T17:26:09.199Z,13.18
2023-04-29T17:28:35.621Z,13.14
2023-04-29T17:31:02.440Z,13.05
2023-04-29T17:33:34.160Z,12.97
2023-04-29T17:36:04.562Z,12.88
2023-04-29T17:38:34.906Z,12.82
2023-04-29T17:41:02.159Z,12.78
2023-04-29T17:43:28.804Z,12.75
2023-04-29T17:45:57.999Z,12.71
2023-04-29T17:48:24.412Z,12.68
2023-04-29T17:50:51.041Z,12.57
2023-04-29T17:53:17.494Z,12.46
2023-04-29T17:55:44.851Z,12.35
2023-04-29T17:58:11.610Z,12.22
2023-04-29T18:00:38.702Z,12.14
2023-04-29T18:03:05.286Z,12.07
2023-04-29T18:05:31.811Z,11.99
2023-04-29T18:07:58.238Z,11.92
2023-04-29T18:10:24.850Z,11.85
2023-04-29T18:12:51.342Z,11.76
2023-04-29T18:15:17.857Z,11.69
2023-04-29T18:17:44.374Z,11.62
2023-04-29T18:20:12.731Z,11.53
2023-04-29T18:22:39.353Z,11.44
2023-04-29T18:25:06.240Z,11.37
2023-04-29T18:27:32.669Z,11.28
2023-04-29T18:29:59.047Z,11.20
2023-04-29T18:32:25.642Z,11.10
2023-04-29T18:34:52.035Z,11.03
2023-04-29T18:37:18.403Z,10.92
2023-04-29T18:39:44.823Z,10.77
2023-04-29T18:42:11.447Z,10.67
2023-04-29T18:44:38.864Z,10.54
2023-04-29T18:47:05.243Z,10.40
2023-04-29T18:49:31.665Z,10.32
2023-04-29T18:51:58.095Z,10.17
2023-04-29T18:54:24.557Z,10.05
2023-04-29T18:56:52.049Z,9.96
2023-04-29T18:59:21.238Z,9.88
2023-04-29T19:01:48.497Z,9.79
2023-04-29T19:04:15.621Z,9.70
2023-04-29T19:06:42.606Z,9.62
2023-04-29T19:09:09.244Z,9.58
2023-04-29T19:11:36.135Z,9.56
2023-04-29T19:14:04.116Z,9.47
2023-04-29T19:16:30.519Z,9.32
2023-04-29T19:18:56.913Z,9.23
2023-04-29T19:21:23.382Z,9.19
2023-04-29T19:23:49.838Z,9.13
2023-04-29T19:26:16.397Z,9.04
2023-04-29T19:28:42.771Z,8.94
2023-04-29T19:31:10.606Z,8.88
2023-04-29T19:33:37.074Z,8.81
2023-04-29T19:36:04.049Z,8.75
2023-04-29T19:38:30.555Z,8.68
2023-04-29T19:40:57.105Z,8.66
2023-04-29T19:43:23.726Z,8.59
2023-04-29T19:45:50.296Z,8.57
2023-04-29T19:48:16.698Z,8.56
2023-04-29T19:50:43.337Z,8.54
2023-04-29T19:53:11.090Z,8.47
2023-04-29T19:55:39.255Z,8.41
2023-04-29T19:58:06.463Z,8.28
2023-04-29T20:00:33.661Z,8.16
2023-04-29T20:03:00.357Z,8.11
2023-04-29T20:05:28.257Z,8.03
2023-04-29T20:07:55.381Z,8.03
2023-04-29T20:10:21.923Z,7.94
2023-04-29T20:12:48.390Z,7.88
2023-04-29T20:15:14.881Z,7.85
2023-04-29T20:17:41.538Z,7.88
2023-04-29T20:20:09.019Z,7.87
2023-04-29T20:22:35.688Z,7.80
2023-04-29T20:25:02.931Z,7.78
2023-04-29T20:27:29.415Z,7.76
2023-04-29T20:29:56.913Z,7.75
2023-04-29T20:32:23.650Z,7.73
2023-04-29T20:34:50.145Z,7.71
2023-04-29T20:37:17.419Z,7.66
2023-04-29T20:39:43.884Z,7.59
2023-04-29T20:42:10.308Z,7.51
2023-04-29T20:44:38.357Z,7.49
2023-04-29T20:47:05.968Z,7.45
2023-04-29T20:49:32.835Z,7.44
2023-04-29T20:51:59.801Z,7.40
2023-04-29T20:54:26.362Z,7.42
2023-04-29T20:56:52.736Z,7.42
2023-04-29T20:59:19.095Z,7.43
2023-04-29T21:01:46.278Z,7.44
2023-04-29T21:04:12.754Z,7.46
2023-04-29T21:06:39.305Z,7.45
2023-04-29T21:09:05.869Z,7.42
2023-04-29T21:11:32.324Z,7.40
2023-04-29T21:13:58.896Z,7.38
2023-04-29T21:16:25.638Z,7.34
2023-04-29T21:18:52.259Z,7.30
2023-04-29T21:21:18.676Z,7.26
2023-04-29T21:23:45.212Z,7.22
2023-04-29T21:26:14.812Z,7.25
2023-04-29T21:28:41.689Z,7.25
2023-04-29T21:31:15.110Z,7.25
2023-04-29T21:33:45.569Z,7.25
2023-04-29T21:36:12.652Z,7.24
2023-04-29T21:38:39.064Z,7.21
2023-04-29T21:41:06.609Z,7.18
2023-04-29T21:43:33.274Z,7.15
2023-04-29T21:46:00.308Z,7.13
2023-04-29T21:48:27.401Z,7.11
2023-04-29T21:50:53.778Z,7.09
2023-04-29T21:53:20.260Z,7.08
2023-04-29T21:55:46.701Z,7.07
2023-04-29T21:58:13.240Z,7.06
2023-04-29T22:00:47.587Z,7.01
2023-04-29T22:03:13.997Z,6.91
2023-04-29T22:05:40.477Z,6.80
2023-04-29T22:08:07.429Z,6.73
2023-04-29T22:10:34.176Z,6.67
2023-04-29T22:13:00.650Z,6.62
2023-04-29T22:15:29.096Z,6.56
2023-04-29T22:17:56.798Z,6.52
2023-04-29T22:20:23.404Z,6.48
2023-04-29T22:22:49.794Z,6.44
2023-04-29T22:25:16.327Z,6.38
2023-04-29T22:27:42.695Z,6.33
2023-04-29T22:30:09.445Z,6.33
2023-04-29T22:32:36.213Z,6.32
2023-04-29T22:35:02.621Z,6.34
2023-04-29T22:37:29.086Z,6.39
2023-04-29T22:39:56.272Z,6.43
2023-04-29T22:42:23.135Z,6.43
2023-04-29T22:44:49.564Z,6.33
2023-04-29T22:47:16.795Z,6.21
2023-04-29T22:49:43.202Z,6.21
2023-04-29T22:52:09.601Z,6.25
2023-04-29T22:54:35.990Z,6.25
2023-04-29T22:57:03.951Z,6.26
2023-04-29T22:59:30.460Z,6.24
2023-04-29T23:01:57.202Z,6.21
2023-04-29T23:04:24.717Z,6.19
2023-04-29T23:06:51.464Z,6.20
2023-04-29T23:09:17.996Z,6.20
2023-04-29T23:11:44.427Z,6.19
2023-04-29T23:14:10.892Z,6.19
2023-04-29T23:16:37.256Z,6.18
2023-04-29T23:19:04.410Z,6.14
2023-04-29T23:21:31.074Z,6.09
2023-04-29T23:23:57.530Z,6.05
2023-04-29T23:26:23.999Z,6.05
2023-04-29T23:28:50.446Z,6.07
2023-04-29T23:31:16.997Z,6.02
2023-04-29T23:33:43.533Z,5.98
2023-04-29T23:36:09.975Z,5.95
2023-04-29T23:38:36.349Z,5.91
2023-04-29T23:41:02.781Z,5.88
2023-04-29T23:43:29.198Z,5.87
2023-04-29T23:45:55.604Z,5.80
2023-04-29T23:48:22.095Z,5.75
2023-04-29T23:50:48.524Z,5.72
2023-04-29T23:53:15.434Z,5.66
2023-04-29T23:55:41.870Z,5.64
2023-04-29T23:58:08.346Z,5.62
